createdAt,value
2023-02-06T07:45:27.645Z,0.01
2023-02-06T07:47:29.441Z,0.05
2023-02-06T07:49:31.352Z,0.09
2023-02-06T07:51:32.707Z,0.18
2023-02-06T07:53:34.234Z,0.23
2023-02-06T07:55:36.530Z,0.31
2023-02-06T07:57:37.717Z,0.43
2023-02-06T07:59:39.184Z,0.53
2023-02-06T08:01:40.564Z,0.8
2023-02-06T08:03:41.734Z,1.34
2023-02-06T08:05:43.690Z,1.34
2023-02-06T08:07:46.217Z,1.97
2023-02-06T08:09:47.684Z,2.13
2023-02-06T08:11:49.092Z,1.55
2023-02-06T08:13:50.774Z,1.82
2023-02-06T08:15:52.463Z,1.96
2023-02-06T08:17:53.815Z,1.85
2023-02-06T08:19:55.670Z,1.64
2023-02-06T08:21:57.214Z,1.63
2023-02-06T08:23:58.439Z,1.36
2023-02-06T08:25:59.685Z,1.25
2023-02-06T08:28:01.414Z,1.11
2023-02-06T08:30:02.514Z,1.02
2023-02-06T08:32:04.529Z,0.98
2023-02-06T08:34:06.406Z,1.01
2023-02-06T08:36:08.230Z,1.07
2023-02-06T08:38:10.087Z,0.98
2023-02-06T08:40:11.604Z,1.04
2023-02-06T08:42:13.230Z,1.05
2023-02-06T08:44:14.696Z,0.93
2023-02-06T08:46:16.348Z,1.01
2023-02-06T08:48:17.841Z,1.12
2023-02-06T08:50:18.852Z,1.02
2023-02-06T08:52:19.896Z,1.21
2023-02-06T08:54:21.349Z,1.16
2023-02-06T08:56:22.653Z,1.22
2023-02-06T08:58:23.928Z,1.42
2023-02-06T09:00:25.123Z,1.35
2023-02-06T09:02:26.953Z,1.54
2023-02-06T09:04:28.208Z,1.62
2023-02-06T09:06:29.311Z,1.77
2023-02-06T09:08:31.011Z,2.04
2023-02-06T09:10:32.881Z,1.98
2023-02-06T09:12:34.481Z,2.03
2023-02-06T09:14:36.006Z,2.01
2023-02-06T09:16:37.873Z,1.9
2023-02-06T09:18:38.999Z,1.97
2023-02-06T09:20:40.780Z,1.92
2023-02-06T09:22:41.998Z,2.22
2023-02-06T09:24:43.242Z,2.21
2023-02-06T09:26:57.274Z,2.4
2023-02-06T09:28:46.744Z,2.32
2023-02-06T09:30:47.889Z,2.4
2023-02-06T09:32:49.112Z,2.23
2023-02-06T09:34:51.057Z,2.32
2023-02-06T09:36:52.083Z,2.53
2023-02-06T09:38:53.502Z,2.49
2023-02-06T09:40:55.347Z,2.2
2023-02-06T09:42:57.254Z,2.21
2023-02-06T09:44:58.489Z,2.15
2023-02-06T09:47:00.025Z,2.25
2023-02-06T09:49:01.936Z,2.39
2023-02-06T09:51:03.573Z,2.47
2023-02-06T09:53:05.022Z,2.38
2023-02-06T09:55:06.044Z,2.51
2023-02-06T09:57:07.321Z,2.45
2023-02-06T09:59:09.236Z,2.49
2023-02-06T10:01:10.611Z,2.39
2023-02-06T10:03:12.369Z,2.2
2023-02-06T10:05:14.096Z,2.21
2023-02-06T10:07:15.766Z,2.24
2023-02-06T10:09:17.489Z,2.28
2023-02-06T10:11:18.666Z,2.29
2023-02-06T10:13:19.683Z,2.32
2023-02-06T10:15:21.045Z,2.31
2023-02-06T10:17:22.627Z,2.14
2023-02-06T10:19:24.280Z,2.03
2023-02-06T10:21:25.775Z,2.16
2023-02-06T10:23:27.417Z,2.13
2023-02-06T10:25:28.512Z,2.04
2023-02-06T10:27:30.184Z,2.15
2023-02-06T10:29:32.094Z,2.05
2023-02-06T10:31:33.899Z,1.88
2023-02-06T10:33:35.804Z,1.89
2023-02-06T10:35:37.522Z,1.88
2023-02-06T10:37:38.999Z,1.97
2023-02-06T10:39:40.105Z,1.96
2023-02-06T10:41:41.796Z,1.96
2023-02-06T10:43:43.664Z,2.01
2023-02-06T10:45:44.656Z,2.08
2023-02-06T10:47:45.858Z,1.89
2023-02-06T10:49:47.448Z,1.96
2023-02-06T10:51:48.889Z,2.06
2023-02-06T10:53:49.953Z,1.92
2023-02-06T10:55:51.191Z,1.97
2023-02-06T10:57:52.760Z,2.06
2023-02-06T10:59:54.080Z,2.07
2023-02-06T11:01:55.220Z,2.14
2023-02-06T11:03:56.750Z,2.22
2023-02-06T11:04:40.562Z,2.27
2023-02-06T11:06:41.896Z,2.36
2023-02-06T11:08:43.303Z,2.42
2023-02-06T11:10:44.577Z,2.52
2023-02-06T11:12:46.630Z,2.59
2023-02-06T11:14:48.282Z,2.45
2023-02-06T11:16:49.376Z,2.38
2023-02-06T11:18:51.172Z,2.47
2023-02-06T11:20:54.887Z,2.67
2023-02-06T11:24:56.441Z,2.8
2023-02-06T11:26:57.999Z,3.04
2023-02-06T11:28:59.213Z,3.09
2023-02-06T11:31:01.183Z,3.02
2023-02-06T11:33:04.839Z,3.19
2023-02-06T11:35:03.907Z,3.33
2023-02-06T11:37:04.980Z,3.6
2023-02-06T11:39:06.427Z,3.38
2023-02-06T11:41:07.994Z,3.31
2023-02-06T11:43:09.548Z,3.18
2023-02-06T11:45:10.517Z,3.19
2023-02-06T11:47:12.397Z,2.94
2023-02-06T11:49:13.499Z,2.82
2023-02-06T11:51:15.085Z,2.9
2023-02-06T11:53:16.931Z,2.92
2023-02-06T11:55:18.793Z,3.04
2023-02-06T11:57:20.245Z,2.94
2023-02-06T11:59:21.824Z,3.04
2023-02-06T12:01:23.141Z,3.12
2023-02-06T12:03:25.047Z,2.98
2023-02-06T12:07:27.412Z,3.27
2023-02-06T12:09:29.269Z,3.27
2023-02-06T12:11:31.047Z,3.2
2023-02-06T12:13:32.430Z,3.29
2023-02-06T12:15:45.762Z,3.18
2023-02-06T12:17:35.857Z,3.21
2023-02-06T12:19:36.808Z,3.21
2023-02-06T12:21:38.455Z,3.06
2023-02-06T12:23:39.609Z,2.94
2023-02-06T12:25:40.779Z,3.04
2023-02-06T12:27:42.175Z,3.21
2023-02-06T12:29:43.085Z,3.06
2023-02-06T12:31:44.179Z,2.88
2023-02-06T12:33:45.327Z,3.14
2023-02-06T12:35:46.902Z,3.24
2023-02-06T12:37:48.627Z,3.35
2023-02-06T12:39:49.974Z,3.29
2023-02-06T12:41:50.910Z,3.56
2023-02-06T12:43:52.798Z,3.63
2023-02-06T12:45:54.651Z,3.77
2023-02-06T12:47:56.443Z,3.74
2023-02-06T12:49:57.657Z,3.44
2023-02-06T12:51:59.518Z,3.42
2023-02-06T12:54:00.502Z,3.49
2023-02-06T12:56:02.299Z,3.32
2023-02-06T12:58:03.431Z,3.56
2023-02-06T13:00:04.392Z,3.7
2023-02-06T13:02:06.267Z,3.63
2023-02-06T13:04:07.514Z,3.69
2023-02-06T13:06:08.732Z,3.59
2023-02-06T13:08:09.902Z,3.74
2023-02-06T13:10:11.147Z,3.57
2023-02-06T13:12:12.593Z,3.58
2023-02-06T13:14:13.672Z,3.8
2023-02-06T13:16:15.461Z,3.85
2023-02-06T13:18:16.630Z,3.71
2023-02-06T13:20:18.393Z,3.42
2023-02-06T13:22:19.722Z,3.55
2023-02-06T13:24:21.476Z,3.58
2023-02-06T13:26:22.963Z,3.7
2023-02-06T13:28:24.622Z,3.59
2023-02-06T13:30:26.520Z,3.48
2023-02-06T13:32:28.143Z,3.46
2023-02-06T13:34:30.051Z,3.39
2023-02-06T13:36:31.609Z,3.45
2023-02-06T13:38:33.108Z,3.53
2023-02-06T13:40:34.357Z,3.42
2023-02-06T13:42:35.365Z,3.47
2023-02-06T13:44:36.784Z,3.43
2023-02-06T13:46:37.791Z,3.29
2023-02-06T13:48:39.545Z,3.03
2023-02-06T13:50:40.687Z,2.95
2023-02-06T13:52:42.379Z,2.91
2023-02-06T13:54:43.607Z,2.98
2023-02-06T13:56:45.553Z,2.87
2023-02-06T13:58:46.775Z,2.86
2023-02-06T14:00:48.553Z,2.89
2023-02-06T14:02:50.410Z,2.9
2023-02-06T14:04:52.014Z,2.77
2023-02-06T14:06:54.009Z,2.77
2023-02-06T14:08:55.875Z,2.79
2023-02-06T14:10:57.355Z,2.82
2023-02-06T14:12:58.684Z,2.84
2023-02-06T14:15:00.187Z,2.91
2023-02-06T14:17:02.018Z,2.81
2023-02-06T14:19:03.941Z,2.8
2023-02-06T14:21:05.483Z,2.74
2023-02-06T14:23:06.493Z,2.83
2023-02-06T14:25:09.279Z,2.66
2023-02-06T14:27:09.783Z,2.68
2023-02-06T14:29:11.738Z,2.72
2023-02-06T14:31:13.237Z,2.68
2023-02-06T14:33:14.226Z,2.64
2023-02-06T14:35:15.396Z,2.6
2023-02-06T14:37:16.992Z,2.57
2023-02-06T14:39:18.064Z,2.53
2023-02-06T14:41:19.103Z,2.47
2023-02-06T14:43:20.767Z,2.47
2023-02-06T14:45:22.785Z,2.51
2023-02-06T14:47:24.601Z,2.52
2023-02-06T14:49:26.464Z,2.59
2023-02-06T14:51:28.267Z,2.52
2023-02-06T14:53:29.660Z,2.6
2023-02-06T14:55:31.489Z,2.68
2023-02-06T14:57:33.324Z,2.66
2023-02-06T14:59:34.300Z,2.66
2023-02-06T15:01:35.997Z,2.6
2023-02-06T15:03:37.115Z,2.64
2023-02-06T15:05:38.847Z,2.62
2023-02-06T15:07:40.398Z,2.58
2023-02-06T15:09:41.870Z,2.59
2023-02-06T15:11:43.010Z,2.66
2023-02-06T15:13:44.399Z,2.86
2023-02-06T15:15:45.863Z,2.86
2023-02-06T15:17:46.987Z,2.89
2023-02-06T15:19:48.141Z,2.66
2023-02-06T15:21:49.681Z,2.67
2023-02-06T15:23:50.703Z,2.67
2023-02-06T15:25:51.787Z,2.63
2023-02-06T15:27:53.294Z,2.58
2023-02-06T15:29:54.883Z,2.64
2023-02-06T15:31:56.778Z,2.69
2023-02-06T15:33:58.373Z,2.7
2023-02-06T15:35:59.881Z,2.62
2023-02-06T15:38:00.916Z,2.63
2023-02-06T15:40:02.638Z,2.61
2023-02-06T15:42:04.135Z,2.52
2023-02-06T15:44:05.545Z,2.51
2023-02-06T15:46:07.551Z,2.51
2023-02-06T15:48:08.582Z,2.43
2023-02-06T15:50:10.385Z,2.42
2023-02-06T15:52:11.535Z,2.35
2023-02-06T15:54:12.604Z,2.37
2023-02-06T15:56:14.418Z,2.3
2023-02-06T15:58:15.788Z,2.29
2023-02-06T16:00:17.720Z,2.25
2023-02-06T16:02:19.536Z,2.18
2023-02-06T16:04:21.127Z,2.11
2023-02-06T16:06:22.272Z,2.09
2023-02-06T16:08:23.479Z,2.06
2023-02-06T16:10:24.866Z,2.08
2023-02-06T16:12:25.959Z,2.01
2023-02-06T16:14:27.401Z,2.01
2023-02-06T16:16:28.873Z,2.02
2023-02-06T16:18:30.649Z,2.04
2023-02-06T16:20:31.882Z,2.01
2023-02-06T16:22:33.099Z,1.97
2023-02-06T16:24:34.728Z,1.95
2023-02-06T16:28:38.263Z,2.04
2023-02-06T16:30:40.240Z,2.09
2023-02-06T16:32:41.811Z,2.17
2023-02-06T16:34:43.516Z,2.15
2023-02-06T16:36:44.955Z,2.14
2023-02-06T16:38:54.192Z,2.17
2023-02-06T16:40:47.981Z,2.2
2023-02-06T16:42:49.823Z,2.14
2023-02-06T16:44:51.853Z,2.14
2023-02-06T16:46:52.865Z,2.09
2023-02-06T16:48:53.905Z,2.08
2023-02-06T16:50:55.634Z,2.07
2023-02-06T16:52:57.434Z,2.08
2023-02-06T16:54:58.782Z,2.03
2023-02-06T16:57:00.621Z,2.02
2023-02-06T16:59:02.624Z,2.03
2023-02-06T17:01:04.391Z,1.99
2023-02-06T17:03:05.439Z,2.01
2023-02-06T17:05:07.279Z,2
2023-02-06T17:07:09.028Z,1.99
2023-02-06T17:11:11.975Z,1.97
2023-02-06T17:13:13.912Z,1.95
2023-02-06T17:15:15.210Z,1.86
2023-02-06T17:17:16.997Z,1.86
2023-02-06T17:19:18.857Z,1.89
2023-02-06T17:21:20.596Z,1.91
2023-02-06T17:23:21.958Z,1.82
2023-02-06T17:25:23.277Z,1.79
2023-02-06T17:27:25.067Z,1.77
2023-02-06T17:29:27.059Z,1.69
2023-02-06T17:31:28.601Z,1.67
2023-02-06T17:33:29.839Z,1.67
2023-02-06T17:35:31.230Z,1.61
2023-02-06T17:37:33.190Z,1.57
2023-02-06T17:39:34.296Z,1.53
2023-02-06T17:41:36.085Z,1.54
2023-02-06T17:43:37.446Z,1.54
2023-02-06T17:45:39.586Z,1.49
2023-02-06T17:47:41.064Z,1.45
2023-02-06T17:49:42.320Z,1.4
2023-02-06T17:52:28.010Z,1.37
2023-02-06T17:54:29.897Z,1.35
2023-02-06T17:56:31.647Z,1.32
2023-02-06T17:58:33.359Z,1.28
2023-02-06T18:00:35.473Z,1.27
2023-02-06T18:02:36.501Z,1.24
2023-02-06T18:04:37.958Z,1.17
2023-02-06T18:06:39.896Z,1.21
2023-02-06T18:08:41.034Z,1.16
2023-02-06T18:10:42.985Z,1.14
2023-02-06T18:12:44.879Z,1.1
2023-02-06T18:14:46.003Z,1.11
2023-02-06T18:16:47.392Z,1.09
2023-02-06T18:18:49.039Z,1.11
2023-02-06T18:20:50.588Z,1.08
2023-02-06T18:22:52.614Z,1.13
2023-02-06T18:24:54.133Z,1.12
2023-02-06T18:26:56.043Z,1.1
2023-02-06T18:28:57.914Z,1.1
2023-02-06T18:30:59.679Z,1.07
2023-02-06T18:33:00.758Z,1.07
2023-02-06T18:35:02.213Z,1.09
2023-02-06T18:37:04.107Z,1.09
2023-02-06T18:39:05.465Z,1.06
2023-02-06T18:41:06.774Z,1.1
2023-02-06T18:43:07.870Z,1.06
2023-02-06T18:45:09.184Z,1.1
2023-02-06T18:47:10.803Z,1.08
2023-02-06T18:49:12.580Z,1.07
2023-02-06T18:51:13.757Z,1.05
2023-02-06T18:53:14.882Z,1.04
2023-02-06T18:55:16.801Z,1.01
2023-02-06T18:57:18.659Z,1.04
2023-02-06T18:59:20.260Z,1.03
2023-02-06T19:01:22.222Z,1
2023-02-06T19:03:23.277Z,0.98
2023-02-06T19:05:24.522Z,0.94
2023-02-06T19:07:25.560Z,0.93
2023-02-06T19:09:27.348Z,0.84
2023-02-06T19:11:29.177Z,0.87
2023-02-06T19:13:31.145Z,0.81
2023-02-06T19:15:32.774Z,0.83
2023-02-06T19:17:34.666Z,0.88
2023-02-06T19:19:36.280Z,0.84
2023-02-06T19:21:38.166Z,0.83
2023-02-06T19:23:39.252Z,0.76
2023-02-06T19:25:41.122Z,0.72
2023-02-06T19:27:42.646Z,0.77
2023-02-06T19:29:43.800Z,0.74
2023-02-06T19:31:44.995Z,0.75
2023-02-06T19:33:46.014Z,0.77
2023-02-06T19:35:47.910Z,0.79
2023-02-06T19:37:49.307Z,0.79
2023-02-06T19:39:50.549Z,0.81
2023-02-06T19:41:52.411Z,0.79
2023-02-06T19:43:53.594Z,0.81
2023-02-06T19:45:55.162Z,0.82
2023-02-06T19:47:56.627Z,0.82
2023-02-06T19:49:58.438Z,0.83
2023-02-06T19:52:00.129Z,0.8
2023-02-06T19:54:01.424Z,0.79
2023-02-06T19:56:03.002Z,0.81
2023-02-06T19:58:04.674Z,0.83
2023-02-06T20:00:06.364Z,0.84
2023-02-06T20:02:07.686Z,0.8
2023-02-06T20:04:09.396Z,0.8
2023-02-06T20:06:11.281Z,0.82
2023-02-06T20:08:12.792Z,0.8
2023-02-06T20:10:14.825Z,0.82
2023-02-06T20:12:16.266Z,0.78
2023-02-06T20:14:17.764Z,0.8
2023-02-06T20:16:19.150Z,0.81
2023-02-06T20:18:20.641Z,0.8
2023-02-06T20:20:22.092Z,0.8
2023-02-06T20:22:23.825Z,0.77
2023-02-06T20:24:24.926Z,0.79
2023-02-06T20:26:26.688Z,0.79
2023-02-06T20:28:27.925Z,0.76
2023-02-06T20:30:29.755Z,0.76
2023-02-06T20:32:31.051Z,0.78
2023-02-06T20:34:32.191Z,0.77
2023-02-06T20:36:33.434Z,0.8
2023-02-06T20:38:34.546Z,0.81
2023-02-06T20:40:36.835Z,0.8
2023-02-06T20:42:37.613Z,0.79
2023-02-06T20:44:38.827Z,0.77
2023-02-06T20:46:39.830Z,0.79
2023-02-06T20:48:41.119Z,0.8
2023-02-06T20:50:43.114Z,0.78
2023-02-06T20:54:45.755Z,0.75
2023-02-06T20:56:46.875Z,0.75
2023-02-06T20:58:48.269Z,0.75
2023-02-06T21:00:50.097Z,0.75
2023-02-06T21:02:53.193Z,0.71
2023-02-06T21:04:54.161Z,0.67
2023-02-06T21:06:56.096Z,0.72
2023-02-06T21:08:57.477Z,0.67
2023-02-06T21:10:58.497Z,0.67
2023-02-06T21:13:00.204Z,0.65
2023-02-06T21:15:01.775Z,0.7
2023-02-06T21:17:02.950Z,0.69
2023-02-06T21:19:04.594Z,0.71
2023-02-06T21:21:05.673Z,0.73
2023-02-06T21:23:06.683Z,0.74
2023-02-06T21:25:08.706Z,0.74
2023-02-06T21:27:10.076Z,0.72
2023-02-06T21:29:11.550Z,0.73
2023-02-06T21:31:13.475Z,0.76
2023-02-06T21:33:15.000Z,0.74
2023-02-06T21:35:16.312Z,0.75
2023-02-06T21:37:17.789Z,0.74
2023-02-06T21:39:19.733Z,0.74
2023-02-06T21:41:20.811Z,0.74
2023-02-06T21:43:22.259Z,0.78
2023-02-06T21:45:23.535Z,0.75
2023-02-06T21:47:25.560Z,0.76
2023-02-06T21:49:27.014Z,0.76
2023-02-06T21:51:28.782Z,0.76
2023-02-06T21:53:30.794Z,0.77
2023-02-06T21:55:32.527Z,0.76
2023-02-06T21:57:34.067Z,0.74
2023-02-06T21:59:36.140Z,0.74
2023-02-06T22:01:37.739Z,0.7
2023-02-06T22:03:38.981Z,0.67
2023-02-06T22:05:40.703Z,0.54
2023-02-06T22:07:42.739Z,0.5
2023-02-06T22:09:44.726Z,0.54
2023-02-06T22:11:45.940Z,0.47
2023-02-06T22:13:47.106Z,0.43
2023-02-06T22:15:48.645Z,0.37
2023-02-06T22:17:50.342Z,0.3
2023-02-06T22:19:52.088Z,0.32
2023-02-06T22:21:53.287Z,0.32
2023-02-06T22:23:54.564Z,0.35
2023-02-06T22:25:56.277Z,0.36
2023-02-06T22:28:06.465Z,0.33
2023-02-06T22:29:58.776Z,0.23
2023-02-06T22:32:00.046Z,0.23
2023-02-06T22:34:01.636Z,0.17
2023-02-06T22:36:02.988Z,0.12
2023-02-06T22:38:04.823Z,0.1
2023-02-06T22:40:06.682Z,0.13
2023-02-06T22:42:08.453Z,0
2023-02-06T22:44:10.010Z,-0.02
2023-02-06T22:46:12.099Z,-0.14
2023-02-06T22:48:13.748Z,-0.13
2023-02-06T22:50:15.148Z,-0.1
2023-02-06T22:52:16.667Z,-0.19
2023-02-06T22:54:18.130Z,-0.12
2023-02-06T22:56:19.194Z,-0.08
2023-02-06T22:58:20.410Z,-0.15
2023-02-06T23:00:21.985Z,-0.21
2023-02-06T23:02:23.570Z,-0.2
2023-02-06T23:04:24.648Z,-0.08
2023-02-06T23:06:26.386Z,-0.1
2023-02-06T23:08:27.813Z,-0.11
2023-02-06T23:10:29.437Z,-0.11
2023-02-06T23:12:30.913Z,-0.13
2023-02-06T23:14:32.679Z,-0.11
2023-02-06T23:16:34.028Z,-0.14
2023-02-06T23:18:35.137Z,-0.21
2023-02-06T23:20:36.663Z,-0.36
2023-02-06T23:22:38.341Z,-0.33
2023-02-06T23:24:39.638Z,-0.33
2023-02-06T23:26:41.628Z,-0.43
2023-02-06T23:28:43.013Z,-0.5
2023-02-06T23:30:45.037Z,-0.48
2023-02-06T23:32:46.202Z,-0.49
2023-02-06T23:34:47.554Z,-0.5
2023-02-06T23:36:48.754Z,-0.6
2023-02-06T23:38:50.806Z,-0.57
2023-02-06T23:40:52.014Z,-0.55
2023-02-06T23:42:54.001Z,-0.68
2023-02-06T23:44:55.810Z,-0.75
2023-02-06T23:46:57.732Z,-0.9
2023-02-06T23:48:59.313Z,-0.89
2023-02-06T23:51:01.183Z,-0.9
2023-02-06T23:53:02.520Z,-0.86
2023-02-06T23:55:03.596Z,-0.84
2023-02-06T23:57:05.632Z,-0.98
2023-02-06T23:59:07.341Z,-0.99
